Avon, MN

1:30 PM CDT on August 29, 2016 (GMT -0500)
Stratford Addition | | Change Station

Elev 1125 ft 45.60 °N, 94.47 °W | Updated 26 seconds ago

Clear
Clear
88.2 °F
Feels Like 97 °F
N
1.7
Wind Variable Wind from SSW

Today
High -- | Low -- °F
--% Chance of Precip.
Yesterday
High -- | Low -- °F
Precip. -- in
Pressure 30.15 in
Visibility 10.0 miles
Clouds Clear
Heat Index 97 °F
Dew Point 74 °F
Humidity 62%
Rainfall 0.05 in
Snow Depth Not available.
6:35 AM 8:00 PM
Waning Crescent, 7% visible
METAR KSTC 291753Z 17009KT 10SM CLR 28/22 A3014 RMK AO2 SLP209 60005 T02780222 10278 20194 55013
Pressure 30.15 in
Visibility 10.0 miles
Clouds Clear
Heat Index 97 °F
Dew Point 74 °F
Humidity 62%
Rainfall 0.05 in
Snow Depth Not available.
6:35 AM 8:00 PM
Waning Crescent, 7% visible
METAR KSTC 291753Z 17009KT 10SM CLR 28/22 A3014 RMK AO2 SLP209 60005 T02780222 10278 20194 55013

10-Day Weather Forecast

Almanac

Astronomy

Aug. 29, 2016 Rise Set
Actual Time
Civil Twilight
Nautical Twilight
Astronomical Twilight
Moon
Length of Visible Light
Length of Day
Tomorrow will be .
, % of the Moon is Illuminated

Today's Extremes

State Highs State Lows

Community

WunderPhotos

Upload Photos

1,935,684 photos uploaded!

WunderBlog® & News

Nearby

Air Quality

  Air Quality AQ Index Pollutant
Not available.

Snow Depth

Station Depth Elevation

Earthquake Activity

City Distance Mag. Time & Date
Minimum magnitude displayed is 2.5.

Coastal Water Temperatures

Place Temperature

Stations

Nearby Weather Stations

Station Location Temp. Windchill Dew Point Humidity Wind Precip. Elev Updated Type
                   

Watches & Warnings

There are currently no watches in effect.